sensor_id;sensor_type;location;lat;lon;timestamp;pressure;altitude;pressure_sealevel;temperature;humidity
21111;BME280;10713;51.912;4.494;2023-02-26T00:00:21;101905.44;;;4.64;100.00
21111;BME280;10713;51.912;4.494;2023-02-26T00:02:46;101908.91;;;4.58;100.00
21111;BME280;10713;51.912;4.494;2023-02-26T00:05:14;101911.50;;;4.55;100.00
21111;BME280;10713;51.912;4.494;2023-02-26T00:07:40;101910.59;;;4.48;100.00
21111;BME280;10713;51.912;4.494;2023-02-26T00:10:08;101914.97;;;4.45;100.00
21111;BME280;10713;51.912;4.494;2023-02-26T00:12:34;101922.78;;;4.45;100.00
21111;BME280;10713;51.912;4.494;2023-02-26T00:15:00;101923.66;;;4.42;100.00
21111;BME280;10713;51.912;4.494;2023-02-26T00:17:32;101924.53;;;4.43;100.00
21111;BME280;10713;51.912;4.494;2023-02-26T00:20:01;101922.78;;;4.45;100.00
21111;BME280;10713;51.912;4.494;2023-02-26T00:22:27;101923.69;;;4.47;100.00
21111;BME280;10713;51.912;4.494;2023-02-26T00:24:52;101920.22;;;4.49;100.00
21111;BME280;10713;51.912;4.494;2023-02-26T00:27:18;101925.44;;;4.46;100.00
21111;BME280;10713;51.912;4.494;2023-02-26T00:29:44;101940.22;;;4.44;100.00
21111;BME280;10713;51.912;4.494;2023-02-26T00:32:10;101937.63;;;4.44;100.00
21111;BME280;10713;51.912;4.494;2023-02-26T00:34:36;101933.28;;;4.46;100.00
21111;BME280;10713;51.912;4.494;2023-02-26T00:41:58;101953.28;;;4.38;100.00
21111;BME280;10713;51.912;4.494;2023-02-26T00:44:24;101959.34;;;4.31;100.00
21111;BME280;10713;51.912;4.494;2023-02-26T00:50:07;101973.28;;;4.30;100.00
21111;BME280;10713;51.912;4.494;2023-02-26T00:53:01;101981.13;;;4.32;100.00
21111;BME280;10713;51.912;4.494;2023-02-26T00:55:28;101975.00;;;4.28;100.00
21111;BME280;10713;51.912;4.494;2023-02-26T00:57:53;101981.97;;;4.26;100.00
21111;BME280;10713;51.912;4.494;2023-02-26T01:00:19;101981.94;;;4.23;100.00
21111;BME280;10713;51.912;4.494;2023-02-26T01:02:45;101980.19;;;4.17;100.00
21111;BME280;10713;51.912;4.494;2023-02-26T01:05:11;101972.34;;;4.16;100.00
21111;BME280;10713;51.912;4.494;2023-02-26T01:07:48;101987.19;;;4.29;100.00
21111;BME280;10713;51.912;4.494;2023-02-26T01:10:18;101979.38;;;4.31;100.00
21111;BME280;10713;51.912;4.494;2023-02-26T01:12:44;101994.22;;;4.36;100.00
21111;BME280;10713;51.912;4.494;2023-02-26T01:15:10;101991.66;;;4.45;100.00
21111;BME280;10713;51.912;4.494;2023-02-26T01:17:53;101989.91;;;4.49;100.00
21111;BME280;10713;51.912;4.494;2023-02-26T01:20:22;101990.81;;;4.53;100.00
21111;BME280;10713;51.912;4.494;2023-02-26T01:23:03;101994.34;;;4.61;100.00
21111;BME280;10713;51.912;4.494;2023-02-26T01:25:39;101997.81;;;4.66;100.00
21111;BME280;10713;51.912;4.494;2023-02-26T01:28:06;102003.03;;;4.60;100.00
21111;BME280;10713;51.912;4.494;2023-02-26T01:30:32;102004.75;;;4.55;100.00
21111;BME280;10713;51.912;4.494;2023-02-26T01:33:13;102009.16;;;4.59;100.00
21111;BME280;10713;51.912;4.494;2023-02-26T01:35:52;102009.97;;;4.55;100.00
21111;BME280;10713;51.912;4.494;2023-02-26T01:44:18;102029.09;;;4.43;100.00
21111;BME280;10713;51.912;4.494;2023-02-26T01:49:17;102036.00;;;4.27;100.00
21111;BME280;10713;51.912;4.494;2023-02-26T01:51:53;102032.53;;;4.31;100.00
21111;BME280;10713;51.912;4.494;2023-02-26T01:54:26;102035.09;;;4.23;100.00
21111;BME280;10713;51.912;4.494;2023-02-26T01:56:58;102035.94;;;4.16;100.00
21111;BME280;10713;51.912;4.494;2023-02-26T01:59:25;102041.94;;;4.06;100.00
21111;BME280;10713;51.912;4.494;2023-02-26T02:01:56;102042.75;;;3.97;100.00
21111;BME280;10713;51.912;4.494;2023-02-26T02:04:23;102050.59;;;3.93;100.00
21111;BME280;10713;51.912;4.494;2023-02-26T02:06:49;102052.25;;;3.84;100.00
21111;BME280;10713;51.912;4.494;2023-02-26T02:09:14;102066.91;;;3.67;100.00
21111;BME280;10713;51.912;4.494;2023-02-26T02:14:43;102060.72;;;3.57;100.00
21111;BME280;10713;51.912;4.494;2023-02-26T02:23:10;102070.19;;;3.46;100.00
21111;BME280;10713;51.912;4.494;2023-02-26T02:28:50;102077.16;;;3.46;100.00
21111;BME280;10713;51.912;4.494;2023-02-26T02:31:37;102077.13;;;3.43;100.00
21111;BME280;10713;51.912;4.494;2023-02-26T02:39:15;102081.38;;;3.34;100.00
21111;BME280;10713;51.912;4.494;2023-02-26T02:41:48;102082.22;;;3.32;100.00
21111;BME280;10713;51.912;4.494;2023-02-26T02:44:17;102088.25;;;3.25;100.00
21111;BME280;10713;51.912;4.494;2023-02-26T02:46:46;102087.28;;;3.16;100.00
21111;BME280;10713;51.912;4.494;2023-02-26T02:49:18;102086.31;;;3.08;100.00
21111;BME280;10713;51.912;4.494;2023-02-26T02:51:55;102090.66;;;3.08;100.00
21111;BME280;10713;51.912;4.494;2023-02-26T02:57:02;102088.97;;;3.10;100.00
21111;BME280;10713;51.912;4.494;2023-02-26T02:59:46;102094.25;;;3.16;100.00
21111;BME280;10713;51.912;4.494;2023-02-26T03:02:20;102097.69;;;3.13;100.00
21111;BME280;10713;51.912;4.494;2023-02-26T03:04:48;102095.16;;;3.18;100.00
21111;BME280;10713;51.912;4.494;2023-02-26T03:07:14;102094.25;;;3.17;100.00
21111;BME280;10713;51.912;4.494;2023-02-26T03:09:39;102101.19;;;3.14;100.00
21111;BME280;10713;51.912;4.494;2023-02-26T03:12:05;102092.47;;;3.13;100.00
21111;BME280;10713;51.912;4.494;2023-02-26T03:14:31;102101.25;;;3.19;100.00
21111;BME280;10713;51.912;4.494;2023-02-26T03:22:17;102105.63;;;3.21;100.00
21111;BME280;10713;51.912;4.494;2023-02-26T03:24:57;102104.75;;;3.21;100.00
21111;BME280;10713;51.912;4.494;2023-02-26T03:27:34;102108.22;;;3.21;100.00
21111;BME280;10713;51.912;4.494;2023-02-26T03:30:12;102109.09;;;3.22;100.00
21111;BME280;10713;51.912;4.494;2023-02-26T03:33:03;102111.72;;;3.22;100.00
21111;BME280;10713;51.912;4.494;2023-02-26T03:38:07;102122.16;;;3.23;100.00
21111;BME280;10713;51.912;4.494;2023-02-26T03:40:40;102124.75;;;3.22;100.00
21111;BME280;10713;51.912;4.494;2023-02-26T03:43:14;102125.63;;;3.21;100.00
21111;BME280;10713;51.912;4.494;2023-02-26T03:45:44;102130.78;;;3.17;100.00
21111;BME280;10713;51.912;4.494;2023-02-26T03:48:14;102135.13;;;3.15;100.00
21111;BME280;10713;51.912;4.494;2023-02-26T03:50:48;102138.69;;;3.21;100.00
21111;BME280;10713;51.912;4.494;2023-02-26T03:53:20;102134.22;;;3.12;100.00
21111;BME280;10713;51.912;4.494;2023-02-26T03:55:52;102146.41;;;3.13;100.00
21111;BME280;10713;51.912;4.494;2023-02-26T03:58:20;102148.91;;;3.05;100.00
21111;BME280;10713;51.912;4.494;2023-02-26T04:00:51;102158.53;;;3.09;100.00
21111;BME280;10713;51.912;4.494;2023-02-26T04:03:29;102156.81;;;3.11;100.00
21111;BME280;10713;51.912;4.494;2023-02-26T04:05:58;102153.31;;;3.09;100.00
21111;BME280;10713;51.912;4.494;2023-02-26T04:08:24;102161.13;;;3.06;100.00
21111;BME280;10713;51.912;4.494;2023-02-26T04:11:05;102163.66;;;3.03;100.00
21111;BME280;10713;51.912;4.494;2023-02-26T04:13:32;102158.31;;;2.94;100.00
21111;BME280;10713;51.912;4.494;2023-02-26T04:15:57;102166.16;;;2.94;100.00
21111;BME280;10713;51.912;4.494;2023-02-26T04:18:23;102166.16;;;2.94;100.00
21111;BME280;10713;51.912;4.494;2023-02-26T04:20:48;102167.88;;;2.92;100.00
21111;BME280;10713;51.912;4.494;2023-02-26T04:23:14;102168.72;;;2.91;100.00
21111;BME280;10713;51.912;4.494;2023-02-26T04:25:39;102179.13;;;2.88;100.00
21111;BME280;10713;51.912;4.494;2023-02-26T04:28:05;102175.66;;;2.90;100.00
21111;BME280;10713;51.912;4.494;2023-02-26T04:30:30;102176.53;;;2.91;100.00
21111;BME280;10713;51.912;4.494;2023-02-26T04:32:55;102179.97;;;2.87;100.00
21111;BME280;10713;51.912;4.494;2023-02-26T04:35:21;102181.69;;;2.83;100.00
21111;BME280;10713;51.912;4.494;2023-02-26T04:37:46;102187.69;;;2.79;100.00
21111;BME280;10713;51.912;4.494;2023-02-26T04:40:12;102194.72;;;2.83;100.00
21111;BME280;10713;51.912;4.494;2023-02-26T04:42:37;102193.72;;;2.75;100.00
21111;BME280;10713;51.912;4.494;2023-02-26T04:45:03;102202.34;;;2.71;100.00
21111;BME280;10713;51.912;4.494;2023-02-26T04:47:28;102208.41;;;2.71;100.00
21111;BME280;10713;51.912;4.494;2023-02-26T04:49:53;102204.97;;;2.73;100.00
21111;BME280;10713;51.912;4.494;2023-02-26T04:52:19;102198.03;;;2.75;100.00
21111;BME280;10713;51.912;4.494;2023-02-26T04:54:44;102194.59;;;2.76;100.00
21111;BME280;10713;51.912;4.494;2023-02-26T04:57:09;102197.88;;;2.62;100.00
21111;BME280;10713;51.912;4.494;2023-02-26T04:59:35;102205.53;;;2.53;100.00
21111;BME280;10713;51.912;4.494;2023-02-26T05:02:01;102214.25;;;2.54;100.00
21111;BME280;10713;51.912;4.494;2023-02-26T05:04:26;102221.16;;;2.52;100.00
21111;BME280;10713;51.912;4.494;2023-02-26T05:06:51;102217.66;;;2.50;100.00
21111;BME280;10713;51.912;4.494;2023-02-26T05:09:17;102223.72;;;2.48;100.00
21111;BME280;10713;51.912;4.494;2023-02-26T05:11:42;102225.53;;;2.53;100.00
21111;BME280;10713;51.912;4.494;2023-02-26T05:14:08;102224.72;;;2.55;100.00
21111;BME280;10713;51.912;4.494;2023-02-26T05:16:33;102221.19;;;2.53;100.00
21111;BME280;10713;51.912;4.494;2023-02-26T05:18:58;102228.16;;;2.54;100.00
21111;BME280;10713;51.912;4.494;2023-02-26T05:21:24;102237.69;;;2.54;100.00
21111;BME280;10713;51.912;4.494;2023-02-26T05:23:49;102229.00;;;2.53;100.00
21111;BME280;10713;51.912;4.494;2023-02-26T05:26:15;102228.97;;;2.52;100.00
21111;BME280;10713;51.912;4.494;2023-02-26T05:28:40;102235.03;;;2.51;100.00
21111;BME280;10713;51.912;4.494;2023-02-26T05:31:05;102235.91;;;2.50;100.00
21111;BME280;10713;51.912;4.494;2023-02-26T05:33:31;102239.31;;;2.45;100.00
21111;BME280;10713;51.912;4.494;2023-02-26T05:35:56;102241.03;;;2.43;100.00
21111;BME280;10713;51.912;4.494;2023-02-26T05:38:22;102251.41;;;2.42;100.00
21111;BME280;10713;51.912;4.494;2023-02-26T05:40:47;102250.44;;;2.35;100.00
21111;BME280;10713;51.912;4.494;2023-02-26T05:43:13;102262.59;;;2.35;100.00
21111;BME280;10713;51.912;4.494;2023-02-26T05:45:38;102263.41;;;2.32;100.00
21111;BME280;10713;51.912;4.494;2023-02-26T05:48:03;102265.88;;;2.24;100.00
21111;BME280;10713;51.912;4.494;2023-02-26T05:50:29;102268.38;;;2.18;100.00
21111;BME280;10713;51.912;4.494;2023-02-26T05:52:55;102280.53;;;2.19;100.00
21111;BME280;10713;51.912;4.494;2023-02-26T05:55:21;102277.00;;;2.16;100.00
21111;BME280;10713;51.912;4.494;2023-02-26T05:57:46;102288.19;;;2.10;100.00
21111;BME280;10713;51.912;4.494;2023-02-26T06:00:12;102288.09;;;2.04;100.00
21111;BME280;10713;51.912;4.494;2023-02-26T06:02:37;102295.91;;;2.04;100.00
21111;BME280;10713;51.912;4.494;2023-02-26T06:05:03;102304.53;;;2.03;100.00
21111;BME280;10713;51.912;4.494;2023-02-26T06:07:28;102295.91;;;2.04;100.00
21111;BME280;10713;51.912;4.494;2023-02-26T06:09:54;102308.13;;;2.08;100.00
21111;BME280;10713;51.912;4.494;2023-02-26T06:12:20;102305.44;;;2.03;100.00
21111;BME280;10713;51.912;4.494;2023-02-26T06:14:45;102296.56;;;1.94;100.00
21111;BME280;10713;51.912;4.494;2023-02-26T06:17:10;102305.19;;;1.91;100.00
21111;BME280;10713;51.912;4.494;2023-02-26T06:19:36;102317.28;;;1.88;100.00
21111;BME280;10713;51.912;4.494;2023-02-26T06:22:01;102311.94;;;1.82;100.00
21111;BME280;10713;51.912;4.494;2023-02-26T06:24:26;102310.19;;;1.80;100.00
21111;BME280;10713;51.912;4.494;2023-02-26T06:26:52;102304.84;;;1.74;100.00
21111;BME280;10713;51.912;4.494;2023-02-26T06:29:17;102304.78;;;1.71;100.00
21111;BME280;10713;51.912;4.494;2023-02-26T06:31:44;102306.50;;;1.71;100.00
21111;BME280;10713;51.912;4.494;2023-02-26T06:34:10;102316.16;;;1.75;100.00
21111;BME280;10713;51.912;4.494;2023-02-26T06:36:35;102326.66;;;1.79;100.00
21111;BME280;10713;51.912;4.494;2023-02-26T06:39:00;102336.47;;;1.93;100.00
21111;BME280;10713;51.912;4.494;2023-02-26T06:41:26;102337.47;;;1.98;100.00
21111;BME280;10713;51.912;4.494;2023-02-26T06:43:51;102344.53;;;2.05;100.00
21111;BME280;10713;51.912;4.494;2023-02-26T06:46:16;102344.53;;;2.51;100.00
21111;BME280;10713;51.912;4.494;2023-02-26T06:48:42;102336.22;;;2.73;100.00
21111;BME280;10713;51.912;4.494;2023-02-26T06:51:07;102342.69;;;2.95;100.00
21111;BME280;10713;51.912;4.494;2023-02-26T06:53:34;102350.56;;;3.57;100.00
21111;BME280;10713;51.912;4.494;2023-02-26T06:55:59;102355.72;;;4.21;100.00
21111;BME280;10713;51.912;4.494;2023-02-26T06:58:24;102359.09;;;5.00;100.00
21111;BME280;10713;51.912;4.494;2023-02-26T07:00:50;102349.06;;;5.72;100.00
21111;BME280;10713;51.912;4.494;2023-02-26T07:03:17;102359.88;;;6.47;100.00
21111;BME280;10713;51.912;4.494;2023-02-26T07:05:44;102356.38;;;7.12;100.00
21111;BME280;10713;51.912;4.494;2023-02-26T07:08:10;102361.53;;;7.72;100.00
21111;BME280;10713;51.912;4.494;2023-02-26T07:10:36;102371.81;;;8.29;100.00
21111;BME280;10713;51.912;4.494;2023-02-26T07:13:02;102376.75;;;8.86;100.00
21111;BME280;10713;51.912;4.494;2023-02-26T07:15:28;102371.97;;;9.29;100.00
21111;BME280;10713;51.912;4.494;2023-02-26T07:17:53;102365.34;;;9.76;100.00
21111;BME280;10713;51.912;4.494;2023-02-26T07:20:19;102367.88;;;10.53;100.00
21111;BME280;10713;51.912;4.494;2023-02-26T07:22:44;102378.00;;;10.82;100.00
21111;BME280;10713;51.912;4.494;2023-02-26T07:25:11;102376.69;;;11.08;100.00
21111;BME280;10713;51.912;4.494;2023-02-26T07:27:37;102383.88;;;11.51;100.00
21111;BME280;10713;51.912;4.494;2023-02-26T07:30:04;102375.56;;;12.14;86.14
21111;BME280;10713;51.912;4.494;2023-02-26T07:32:29;102385.78;;;12.70;82.88
21111;BME280;10713;51.912;4.494;2023-02-26T07:34:55;102384.97;;;13.40;79.52
21111;BME280;10713;51.912;4.494;2023-02-26T07:37:20;102397.94;;;13.83;70.64
21111;BME280;10713;51.912;4.494;2023-02-26T07:39:46;102393.94;;;14.29;72.58
21111;BME280;10713;51.912;4.494;2023-02-26T07:42:11;102403.72;;;14.27;69.83
21111;BME280;10713;51.912;4.494;2023-02-26T07:44:36;102401.44;;;14.74;64.60
21111;BME280;10713;51.912;4.494;2023-02-26T07:47:02;102400.09;;;15.41;63.79
21111;BME280;10713;51.912;4.494;2023-02-26T07:49:28;102407.25;;;15.65;58.88
21111;BME280;10713;51.912;4.494;2023-02-26T07:51:53;102398.38;;;15.90;57.44
21111;BME280;10713;51.912;4.494;2023-02-26T07:54:19;102404.66;;;16.12;55.23
21111;BME280;10713;51.912;4.494;2023-02-26T07:56:44;102403.72;;;16.37;53.07
21111;BME280;10713;51.912;4.494;2023-02-26T07:59:10;102408.16;;;16.36;49.85
21111;BME280;10713;51.912;4.494;2023-02-26T08:01:36;102405.78;;;15.82;48.68
21111;BME280;10713;51.912;4.494;2023-02-26T08:04:02;102405.88;;;16.04;48.24
21111;BME280;10713;51.912;4.494;2023-02-26T08:06:28;102407.06;;;15.95;45.54
21111;BME280;10713;51.912;4.494;2023-02-26T08:08:54;102401.91;;;16.59;47.00
21111;BME280;10713;51.912;4.494;2023-02-26T08:11:19;102403.44;;;17.10;45.42
21111;BME280;10713;51.912;4.494;2023-02-26T08:13:45;102403.06;;;17.20;44.95
21111;BME280;10713;51.912;4.494;2023-02-26T08:16:10;102418.16;;;16.53;43.68
21111;BME280;10713;51.912;4.494;2023-02-26T08:18:35;102422.69;;;16.28;43.41
21111;BME280;10713;51.912;4.494;2023-02-26T08:21:02;102427.44;;;16.19;41.11
21111;BME280;10713;51.912;4.494;2023-02-26T08:23:27;102425.69;;;15.71;40.27
21111;BME280;10713;51.912;4.494;2023-02-26T08:26:04;102433.16;;;15.60;38.29
21111;BME280;10713;51.912;4.494;2023-02-26T08:28:29;102430.97;;;15.46;40.37
21111;BME280;10713;51.912;4.494;2023-02-26T08:30:55;102435.50;;;14.61;39.48
21111;BME280;10713;51.912;4.494;2023-02-26T08:33:20;102440.78;;;14.32;39.05
21111;BME280;10713;51.912;4.494;2023-02-26T08:35:45;102453.34;;;13.63;38.67
21111;BME280;10713;51.912;4.494;2023-02-26T08:38:11;102455.50;;;13.48;39.00
21111;BME280;10713;51.912;4.494;2023-02-26T08:40:36;102453.31;;;13.97;39.49
21111;BME280;10713;51.912;4.494;2023-02-26T08:43:02;102464.00;;;13.24;37.34
21111;BME280;10713;51.912;4.494;2023-02-26T08:45:28;102497.78;;;13.17;37.73
21111;BME280;10713;51.912;4.494;2023-02-26T08:47:54;102483.72;;;12.33;38.55
21111;BME280;10713;51.912;4.494;2023-02-26T08:50:20;102490.66;;;12.82;39.22
21111;BME280;10713;51.912;4.494;2023-02-26T08:52:46;102488.75;;;12.87;38.15
21111;BME280;10713;51.912;4.494;2023-02-26T08:55:11;102494.59;;;12.62;37.85
21111;BME280;10713;51.912;4.494;2023-02-26T08:57:37;102495.06;;;11.96;38.95
21111;BME280;10713;51.912;4.494;2023-02-26T09:00:04;102499.25;;;11.57;39.60
21111;BME280;10713;51.912;4.494;2023-02-26T09:02:29;102520.06;;;11.22;39.29
21111;BME280;10713;51.912;4.494;2023-02-26T09:04:55;102499.25;;;11.55;39.61
21111;BME280;10713;51.912;4.494;2023-02-26T09:07:20;102516.41;;;11.30;39.70
21111;BME280;10713;51.912;4.494;2023-02-26T09:09:45;102508.91;;;11.58;39.82
21111;BME280;10713;51.912;4.494;2023-02-26T09:12:11;102528.44;;;12.03;40.21
21111;BME280;10713;51.912;4.494;2023-02-26T09:14:36;102520.94;;;11.77;39.41
21111;BME280;10713;51.912;4.494;2023-02-26T09:17:01;102521.44;;;11.48;38.38
21111;BME280;10713;51.912;4.494;2023-02-26T09:19:27;102508.59;;;11.23;38.27
21111;BME280;10713;51.912;4.494;2023-02-26T09:21:52;102522.97;;;11.05;38.70
21111;BME280;10713;51.912;4.494;2023-02-26T09:24:18;102546.63;;;10.45;38.64
21111;BME280;10713;51.912;4.494;2023-02-26T09:26:43;102531.09;;;10.14;39.58
21111;BME280;10713;51.912;4.494;2023-02-26T09:29:08;102537.66;;;10.58;39.65
21111;BME280;10713;51.912;4.494;2023-02-26T09:31:35;102547.53;;;10.41;39.52
21111;BME280;10713;51.912;4.494;2023-02-26T09:34:01;102547.50;;;10.46;39.75
21111;BME280;10713;51.912;4.494;2023-02-26T09:36:26;102554.50;;;10.50;39.00
21111;BME280;10713;51.912;4.494;2023-02-26T09:38:52;102555.97;;;10.72;39.58
21111;BME280;10713;51.912;4.494;2023-02-26T09:41:25;102555.28;;;10.59;38.29
21111;BME280;10713;51.912;4.494;2023-02-26T09:46:36;102569.66;;;10.32;39.01
21111;BME280;10713;51.912;4.494;2023-02-26T09:49:10;102587.44;;;10.09;38.98
21111;BME280;10713;51.912;4.494;2023-02-26T09:51:38;102568.09;;;10.07;39.60
21111;BME280;10713;51.912;4.494;2023-02-26T09:54:21;102575.97;;;10.16;38.53
21111;BME280;10713;51.912;4.494;2023-02-26T09:56:49;102564.25;;;10.45;39.71
21111;BME280;10713;51.912;4.494;2023-02-26T09:59:15;102561.78;;;11.00;39.05
21111;BME280;10713;51.912;4.494;2023-02-26T10:01:48;102565.16;;;11.70;38.39
21111;BME280;10713;51.912;4.494;2023-02-26T10:10:18;102595.25;;;10.21;37.51
21111;BME280;10713;51.912;4.494;2023-02-26T10:12:49;102596.88;;;10.37;37.56
21111;BME280;10713;51.912;4.494;2023-02-26T10:15:22;102602.09;;;10.45;38.04
21111;BME280;10713;51.912;4.494;2023-02-26T10:23:21;102621.00;;;9.96;38.09
21111;BME280;10713;51.912;4.494;2023-02-26T10:26:11;102614.97;;;9.79;37.64
21111;BME280;10713;51.912;4.494;2023-02-26T10:34:28;102617.69;;;9.68;38.71
21111;BME280;10713;51.912;4.494;2023-02-26T10:40:33;102636.28;;;9.46;38.97
21111;BME280;10713;51.912;4.494;2023-02-26T10:46:01;102612.75;;;9.10;39.93
21111;BME280;10713;51.912;4.494;2023-02-26T10:51:11;102612.84;;;8.94;40.28
21111;BME280;10713;51.912;4.494;2023-02-26T10:53:38;102618.03;;;9.07;40.45
21111;BME280;10713;51.912;4.494;2023-02-26T10:56:10;102607.50;;;9.08;41.75
21111;BME280;10713;51.912;4.494;2023-02-26T10:58:37;102613.53;;;9.29;41.81
21111;BME280;10713;51.912;4.494;2023-02-26T11:01:09;102625.88;;;9.22;41.58
21111;BME280;10713;51.912;4.494;2023-02-26T11:03:40;102621.47;;;9.24;43.07
21111;BME280;10713;51.912;4.494;2023-02-26T11:06:06;102633.88;;;9.00;43.10
21111;BME280;10713;51.912;4.494;2023-02-26T11:08:39;102650.69;;;8.67;42.98
21111;BME280;10713;51.912;4.494;2023-02-26T11:11:06;102634.91;;;8.12;43.20
21111;BME280;10713;51.912;4.494;2023-02-26T11:13:33;102620.03;;;7.94;43.80
21111;BME280;10713;51.912;4.494;2023-02-26T11:16:10;102640.19;;;7.74;44.09
21111;BME280;10713;51.912;4.494;2023-02-26T11:19:08;102635.78;;;7.74;44.75
21111;BME280;10713;51.912;4.494;2023-02-26T11:21:39;102665.59;;;7.70;45.11
21111;BME280;10713;51.912;4.494;2023-02-26T11:24:14;102658.53;;;7.41;45.13
21111;BME280;10713;51.912;4.494;2023-02-26T11:26:43;102631.31;;;7.35;45.80
21111;BME280;10713;51.912;4.494;2023-02-26T11:29:15;102624.34;;;7.37;46.91
21111;BME280;10713;51.912;4.494;2023-02-26T11:31:41;102638.38;;;7.42;46.05
21111;BME280;10713;51.912;4.494;2023-02-26T11:34:10;102636.56;;;7.26;46.48
21111;BME280;10713;51.912;4.494;2023-02-26T11:36:40;102640.06;;;7.25;46.50
21111;BME280;10713;51.912;4.494;2023-02-26T11:39:13;102652.25;;;7.01;46.29
21111;BME280;10713;51.912;4.494;2023-02-26T11:41:39;102634.66;;;6.85;46.42
21111;BME280;10713;51.912;4.494;2023-02-26T11:44:10;102624.13;;;6.79;46.65
21111;BME280;10713;51.912;4.494;2023-02-26T11:46:42;102623.31;;;6.95;47.00
21111;BME280;10713;51.912;4.494;2023-02-26T11:49:11;102625.19;;;7.31;47.13
21111;BME280;10713;51.912;4.494;2023-02-26T11:51:42;102621.66;;;7.17;47.11
21111;BME280;10713;51.912;4.494;2023-02-26T11:54:20;102625.22;;;7.36;47.71
21111;BME280;10713;51.912;4.494;2023-02-26T11:56:46;102624.31;;;7.32;48.01
21111;BME280;10713;51.912;4.494;2023-02-26T11:59:20;102619.97;;;7.42;48.80
21111;BME280;10713;51.912;4.494;2023-02-26T12:01:47;102612.94;;;7.27;48.29
21111;BME280;10713;51.912;4.494;2023-02-26T12:04:15;102619.03;;;7.18;48.09
21111;BME280;10713;51.912;4.494;2023-02-26T12:06:43;102611.22;;;7.43;48.52
21111;BME280;10713;51.912;4.494;2023-02-26T12:09:12;102620.88;;;7.50;48.99
21111;BME280;10713;51.912;4.494;2023-02-26T12:12:03;102618.97;;;7.03;47.38
21111;BME280;10713;51.912;4.494;2023-02-26T12:14:48;102628.50;;;6.76;47.39
21111;BME280;10713;51.912;4.494;2023-02-26T12:22:50;102629.38;;;6.75;48.05
21111;BME280;10713;51.912;4.494;2023-02-26T12:31:04;102618.78;;;6.66;48.63
21111;BME280;10713;51.912;4.494;2023-02-26T12:36:34;102612.66;;;6.58;49.34
21111;BME280;10713;51.912;4.494;2023-02-26T12:55:10;102625.91;;;6.86;48.05
21111;BME280;10713;51.912;4.494;2023-02-26T13:00:15;102614.59;;;6.99;48.87
21111;BME280;10713;51.912;4.494;2023-02-26T13:08:27;102608.59;;;7.54;51.04
21111;BME280;10713;51.912;4.494;2023-02-26T13:13:44;102598.13;;;7.77;51.40
21111;BME280;10713;51.912;4.494;2023-02-26T13:16:34;102615.66;;;7.70;51.85
21111;BME280;10713;51.912;4.494;2023-02-26T13:19:26;102623.50;;;7.52;51.98
21111;BME280;10713;51.912;4.494;2023-02-26T13:22:08;102634.00;;;7.64;54.10
21111;BME280;10713;51.912;4.494;2023-02-26T13:24:42;102619.94;;;7.31;54.23
21111;BME280;10713;51.912;4.494;2023-02-26T13:27:10;102617.28;;;7.27;54.52
21111;BME280;10713;51.912;4.494;2023-02-26T13:32:15;102627.91;;;7.56;54.00
21111;BME280;10713;51.912;4.494;2023-02-26T13:35:06;102617.38;;;7.51;54.71
21111;BME280;10713;51.912;4.494;2023-02-26T13:37:45;102618.25;;;7.50;54.07
21111;BME280;10713;51.912;4.494;2023-02-26T13:50:59;102618.13;;;7.09;53.48
21111;BME280;10713;51.912;4.494;2023-02-26T13:59:02;102624.28;;;7.23;54.23
21111;BME280;10713;51.912;4.494;2023-02-26T14:01:47;102624.31;;;7.28;53.87
21111;BME280;10713;51.912;4.494;2023-02-26T14:06:48;102623.44;;;7.27;55.68
21111;BME280;10713;51.912;4.494;2023-02-26T14:11:57;102616.31;;;6.97;56.63
21111;BME280;10713;51.912;4.494;2023-02-26T14:19:44;102615.63;;;7.56;57.43
21111;BME280;10713;51.912;4.494;2023-02-26T14:22:35;102613.88;;;7.67;57.04
21111;BME280;10713;51.912;4.494;2023-02-26T14:30:52;102611.25;;;7.67;57.50
21111;BME280;10713;51.912;4.494;2023-02-26T14:33:25;102620.00;;;7.51;57.31
21111;BME280;10713;51.912;4.494;2023-02-26T14:35:51;102609.47;;;7.47;56.88
21111;BME280;10713;51.912;4.494;2023-02-26T14:38:27;102611.22;;;7.44;56.69
21111;BME280;10713;51.912;4.494;2023-02-26T14:41:00;102608.56;;;7.34;57.35
21111;BME280;10713;51.912;4.494;2023-02-26T14:43:39;102618.22;;;7.45;58.88
21111;BME280;10713;51.912;4.494;2023-02-26T14:46:07;102618.22;;;7.39;58.46
21111;BME280;10713;51.912;4.494;2023-02-26T14:48:33;102627.81;;;7.22;57.55
21111;BME280;10713;51.912;4.494;2023-02-26T14:57:07;102612.09;;;7.51;59.69
21111;BME280;10713;51.912;4.494;2023-02-26T14:59:53;102603.31;;;7.40;57.80
21111;BME280;10713;51.912;4.494;2023-02-26T15:02:39;102609.50;;;7.56;61.38
21111;BME280;10713;51.912;4.494;2023-02-26T15:08:27;102617.34;;;7.50;58.30
21111;BME280;10713;51.912;4.494;2023-02-26T15:19:30;102613.84;;;7.43;58.47
21111;BME280;10713;51.912;4.494;2023-02-26T15:24:38;102612.00;;;7.14;55.28
21111;BME280;10713;51.912;4.494;2023-02-26T15:27:06;102609.38;;;7.08;57.02
21111;BME280;10713;51.912;4.494;2023-02-26T15:29:35;102608.56;;;7.25;58.38
21111;BME280;10713;51.912;4.494;2023-02-26T15:32:14;102604.13;;;7.17;58.20
21111;BME280;10713;51.912;4.494;2023-02-26T15:34:47;102605.06;;;7.33;58.42
21111;BME280;10713;51.912;4.494;2023-02-26T15:37:23;102602.44;;;7.35;60.67
21111;BME280;10713;51.912;4.494;2023-02-26T15:39:51;102611.19;;;7.34;60.13
21111;BME280;10713;51.912;4.494;2023-02-26T15:42:18;102612.91;;;7.22;56.90
21111;BME280;10713;51.912;4.494;2023-02-26T15:44:46;102612.06;;;7.31;59.02
21111;BME280;10713;51.912;4.494;2023-02-26T15:47:14;102626.94;;;7.26;59.11
21111;BME280;10713;51.912;4.494;2023-02-26T15:49:42;102618.19;;;7.38;60.64
21111;BME280;10713;51.912;4.494;2023-02-26T15:52:12;102619.97;;;7.43;60.08